sensor_id;sensor_type;location;lat;lon;timestamp;P1;durP1;ratioP1;P2;durP2;ratioP2
15230;SDS011;32569;51.762;8.564;2022-11-15T00:01:55;7.87;;;7.07;;
15230;SDS011;32569;51.762;8.564;2022-11-15T00:04:22;7.93;;;6.80;;
15230;SDS011;32569;51.762;8.564;2022-11-15T00:06:49;8.17;;;7.47;;
15230;SDS011;32569;51.762;8.564;2022-11-15T00:09:17;8.57;;;7.47;;
15230;SDS011;32569;51.762;8.564;2022-11-15T00:11:44;7.17;;;6.47;;
15230;SDS011;32569;51.762;8.564;2022-11-15T00:14:10;7.60;;;6.90;;
15230;SDS011;32569;51.762;8.564;2022-11-15T00:16:39;7.07;;;6.33;;
15230;SDS011;32569;51.762;8.564;2022-11-15T00:19:06;7.83;;;7.13;;
15230;SDS011;32569;51.762;8.564;2022-11-15T00:21:33;7.37;;;6.63;;
15230;SDS011;32569;51.762;8.564;2022-11-15T00:24:00;8.47;;;7.63;;
15230;SDS011;32569;51.762;8.564;2022-11-15T00:26:28;9.53;;;7.50;;
15230;SDS011;32569;51.762;8.564;2022-11-15T00:28:55;7.70;;;6.90;;
15230;SDS011;32569;51.762;8.564;2022-11-15T00:31:21;8.03;;;7.23;;
15230;SDS011;32569;51.762;8.564;2022-11-15T00:33:48;8.10;;;7.30;;
15230;SDS011;32569;51.762;8.564;2022-11-15T00:36:15;7.90;;;7.13;;
15230;SDS011;32569;51.762;8.564;2022-11-15T00:38:41;8.63;;;7.83;;
15230;SDS011;32569;51.762;8.564;2022-11-15T00:41:08;9.83;;;7.43;;
15230;SDS011;32569;51.762;8.564;2022-11-15T00:43:37;8.90;;;8.00;;
15230;SDS011;32569;51.762;8.564;2022-11-15T00:46:04;9.30;;;8.40;;
15230;SDS011;32569;51.762;8.564;2022-11-15T00:48:33;10.40;;;7.97;;
15230;SDS011;32569;51.762;8.564;2022-11-15T00:50:59;8.67;;;7.80;;
15230;SDS011;32569;51.762;8.564;2022-11-15T00:53:26;10.47;;;8.20;;
15230;SDS011;32569;51.762;8.564;2022-11-15T00:55:53;10.93;;;9.13;;
15230;SDS011;32569;51.762;8.564;2022-11-15T00:58:20;8.90;;;8.00;;
15230;SDS011;32569;51.762;8.564;2022-11-15T01:00:48;10.73;;;9.70;;
15230;SDS011;32569;51.762;8.564;2022-11-15T01:03:15;9.40;;;8.37;;
15230;SDS011;32569;51.762;8.564;2022-11-15T01:05:41;8.83;;;8.00;;
15230;SDS011;32569;51.762;8.564;2022-11-15T01:08:11;9.33;;;8.40;;
15230;SDS011;32569;51.762;8.564;2022-11-15T01:10:38;9.90;;;8.87;;
15230;SDS011;32569;51.762;8.564;2022-11-15T01:13:05;9.83;;;8.47;;
15230;SDS011;32569;51.762;8.564;2022-11-15T01:15:31;12.27;;;9.20;;
15230;SDS011;32569;51.762;8.564;2022-11-15T01:18:00;10.97;;;9.87;;
15230;SDS011;32569;51.762;8.564;2022-11-15T01:20:26;10.27;;;9.03;;
15230;SDS011;32569;51.762;8.564;2022-11-15T01:22:53;11.03;;;9.43;;
15230;SDS011;32569;51.762;8.564;2022-11-15T01:25:20;9.80;;;8.77;;
15230;SDS011;32569;51.762;8.564;2022-11-15T01:27:47;11.80;;;9.37;;
15230;SDS011;32569;51.762;8.564;2022-11-15T01:30:14;13.33;;;9.13;;
15230;SDS011;32569;51.762;8.564;2022-11-15T01:32:41;12.90;;;9.83;;
15230;SDS011;32569;51.762;8.564;2022-11-15T01:35:09;11.17;;;9.43;;
15230;SDS011;32569;51.762;8.564;2022-11-15T01:37:36;11.50;;;9.40;;
15230;SDS011;32569;51.762;8.564;2022-11-15T01:40:03;12.40;;;9.43;;
15230;SDS011;32569;51.762;8.564;2022-11-15T01:42:30;10.87;;;9.57;;
15230;SDS011;32569;51.762;8.564;2022-11-15T01:44:57;12.53;;;9.93;;
15230;SDS011;32569;51.762;8.564;2022-11-15T01:47:24;10.03;;;8.80;;
15230;SDS011;32569;51.762;8.564;2022-11-15T01:49:55;11.47;;;9.30;;
15230;SDS011;32569;51.762;8.564;2022-11-15T01:52:26;11.20;;;9.33;;
15230;SDS011;32569;51.762;8.564;2022-11-15T01:54:56;10.93;;;9.80;;
15230;SDS011;32569;51.762;8.564;2022-11-15T01:57:27;12.17;;;9.37;;
15230;SDS011;32569;51.762;8.564;2022-11-15T01:59:54;10.73;;;9.37;;
15230;SDS011;32569;51.762;8.564;2022-11-15T02:02:21;11.30;;;10.00;;
15230;SDS011;32569;51.762;8.564;2022-11-15T02:04:48;13.53;;;10.50;;
15230;SDS011;32569;51.762;8.564;2022-11-15T02:07:16;11.60;;;9.27;;
15230;SDS011;32569;51.762;8.564;2022-11-15T02:09:47;11.80;;;10.20;;
15230;SDS011;32569;51.762;8.564;2022-11-15T02:12:16;12.03;;;10.57;;
15230;SDS011;32569;51.762;8.564;2022-11-15T02:14:46;13.70;;;11.20;;
15230;SDS011;32569;51.762;8.564;2022-11-15T02:17:23;13.17;;;11.40;;
15230;SDS011;32569;51.762;8.564;2022-11-15T02:20:24;13.23;;;10.33;;
15230;SDS011;32569;51.762;8.564;2022-11-15T02:23:09;12.07;;;10.50;;
15230;SDS011;32569;51.762;8.564;2022-11-15T02:26:01;12.97;;;10.73;;
15230;SDS011;32569;51.762;8.564;2022-11-15T02:28:47;16.17;;;11.33;;
15230;SDS011;32569;51.762;8.564;2022-11-15T02:31:25;14.43;;;10.97;;
15230;SDS011;32569;51.762;8.564;2022-11-15T02:33:57;13.90;;;11.90;;
15230;SDS011;32569;51.762;8.564;2022-11-15T02:36:31;14.97;;;11.77;;
15230;SDS011;32569;51.762;8.564;2022-11-15T02:39:05;17.87;;;13.07;;
15230;SDS011;32569;51.762;8.564;2022-11-15T02:41:38;14.30;;;12.37;;
15230;SDS011;32569;51.762;8.564;2022-11-15T02:44:12;15.93;;;12.40;;
15230;SDS011;32569;51.762;8.564;2022-11-15T02:46:44;14.87;;;12.27;;
15230;SDS011;32569;51.762;8.564;2022-11-15T02:49:32;14.40;;;12.13;;
15230;SDS011;32569;51.762;8.564;2022-11-15T02:52:00;14.83;;;12.40;;
15230;SDS011;32569;51.762;8.564;2022-11-15T02:54:29;16.03;;;12.63;;
15230;SDS011;32569;51.762;8.564;2022-11-15T02:56:59;15.77;;;13.50;;
15230;SDS011;32569;51.762;8.564;2022-11-15T03:02:34;16.00;;;12.97;;
15230;SDS011;32569;51.762;8.564;2022-11-15T03:05:23;16.27;;;12.93;;
15230;SDS011;32569;51.762;8.564;2022-11-15T03:07:57;16.03;;;12.67;;
15230;SDS011;32569;51.762;8.564;2022-11-15T03:10:32;15.80;;;13.07;;
15230;SDS011;32569;51.762;8.564;2022-11-15T03:13:11;19.87;;;14.60;;
15230;SDS011;32569;51.762;8.564;2022-11-15T03:15:49;18.60;;;13.80;;
15230;SDS011;32569;51.762;8.564;2022-11-15T03:18:21;16.63;;;13.77;;
15230;SDS011;32569;51.762;8.564;2022-11-15T03:20:54;15.53;;;13.90;;
15230;SDS011;32569;51.762;8.564;2022-11-15T03:23:21;21.10;;;14.37;;
15230;SDS011;32569;51.762;8.564;2022-11-15T03:25:48;19.93;;;15.83;;
15230;SDS011;32569;51.762;8.564;2022-11-15T03:28:20;17.70;;;14.43;;
15230;SDS011;32569;51.762;8.564;2022-11-15T03:30:50;17.87;;;15.07;;
15230;SDS011;32569;51.762;8.564;2022-11-15T03:33:21;16.70;;;13.40;;
15230;SDS011;32569;51.762;8.564;2022-11-15T03:35:48;17.13;;;15.33;;
15230;SDS011;32569;51.762;8.564;2022-11-15T03:38:19;17.37;;;14.93;;
15230;SDS011;32569;51.762;8.564;2022-11-15T03:40:49;17.70;;;14.80;;
15230;SDS011;32569;51.762;8.564;2022-11-15T03:43:22;20.30;;;15.27;;
15230;SDS011;32569;51.762;8.564;2022-11-15T03:45:55;17.73;;;14.43;;
15230;SDS011;32569;51.762;8.564;2022-11-15T03:48:29;18.33;;;15.33;;
15230;SDS011;32569;51.762;8.564;2022-11-15T03:51:00;18.40;;;15.80;;
15230;SDS011;32569;51.762;8.564;2022-11-15T03:53:28;17.03;;;15.20;;
15230;SDS011;32569;51.762;8.564;2022-11-15T03:55:56;16.93;;;14.83;;
15230;SDS011;32569;51.762;8.564;2022-11-15T03:58:23;20.37;;;15.97;;
15230;SDS011;32569;51.762;8.564;2022-11-15T04:00:50;17.87;;;15.30;;
15230;SDS011;32569;51.762;8.564;2022-11-15T04:03:17;17.57;;;15.67;;
15230;SDS011;32569;51.762;8.564;2022-11-15T04:05:45;20.40;;;15.00;;
15230;SDS011;32569;51.762;8.564;2022-11-15T04:08:12;22.13;;;15.27;;
15230;SDS011;32569;51.762;8.564;2022-11-15T04:10:38;18.73;;;15.33;;
15230;SDS011;32569;51.762;8.564;2022-11-15T04:13:05;18.00;;;15.27;;
15230;SDS011;32569;51.762;8.564;2022-11-15T04:15:32;20.23;;;16.40;;
15230;SDS011;32569;51.762;8.564;2022-11-15T04:17:59;18.77;;;15.47;;
15230;SDS011;32569;51.762;8.564;2022-11-15T04:20:27;18.43;;;15.00;;
15230;SDS011;32569;51.762;8.564;2022-11-15T04:23:14;15.80;;;14.17;;
15230;SDS011;32569;51.762;8.564;2022-11-15T04:26:00;17.80;;;14.23;;
15230;SDS011;32569;51.762;8.564;2022-11-15T04:28:29;15.73;;;13.73;;
15230;SDS011;32569;51.762;8.564;2022-11-15T04:30:56;15.33;;;13.37;;
15230;SDS011;32569;51.762;8.564;2022-11-15T04:33:23;16.53;;;13.30;;
15230;SDS011;32569;51.762;8.564;2022-11-15T04:35:50;16.57;;;12.73;;
15230;SDS011;32569;51.762;8.564;2022-11-15T04:38:32;15.83;;;13.13;;
15230;SDS011;32569;51.762;8.564;2022-11-15T04:40:59;16.87;;;13.73;;
15230;SDS011;32569;51.762;8.564;2022-11-15T04:43:26;15.17;;;13.57;;
15230;SDS011;32569;51.762;8.564;2022-11-15T04:45:53;14.90;;;13.17;;
15230;SDS011;32569;51.762;8.564;2022-11-15T04:48:20;14.23;;;12.73;;
15230;SDS011;32569;51.762;8.564;2022-11-15T04:50:47;16.70;;;13.63;;
15230;SDS011;32569;51.762;8.564;2022-11-15T04:53:14;16.80;;;12.97;;
15230;SDS011;32569;51.762;8.564;2022-11-15T04:55:45;19.77;;;14.13;;
15230;SDS011;32569;51.762;8.564;2022-11-15T04:58:12;16.27;;;13.73;;
15230;SDS011;32569;51.762;8.564;2022-11-15T05:00:38;14.80;;;13.30;;
15230;SDS011;32569;51.762;8.564;2022-11-15T05:03:05;15.30;;;13.43;;
15230;SDS011;32569;51.762;8.564;2022-11-15T05:05:50;16.33;;;13.77;;
15230;SDS011;32569;51.762;8.564;2022-11-15T05:08:16;15.80;;;13.13;;
15230;SDS011;32569;51.762;8.564;2022-11-15T05:10:44;15.20;;;12.90;;
15230;SDS011;32569;51.762;8.564;2022-11-15T05:13:11;16.73;;;14.47;;
15230;SDS011;32569;51.762;8.564;2022-11-15T05:15:38;14.63;;;12.83;;
15230;SDS011;32569;51.762;8.564;2022-11-15T05:18:05;14.37;;;12.87;;
15230;SDS011;32569;51.762;8.564;2022-11-15T05:20:33;16.97;;;13.53;;
15230;SDS011;32569;51.762;8.564;2022-11-15T05:23:00;14.50;;;13.00;;
15230;SDS011;32569;51.762;8.564;2022-11-15T05:25:27;15.73;;;13.43;;
15230;SDS011;32569;51.762;8.564;2022-11-15T05:27:55;16.80;;;13.00;;
15230;SDS011;32569;51.762;8.564;2022-11-15T05:30:22;14.50;;;12.97;;
15230;SDS011;32569;51.762;8.564;2022-11-15T05:32:49;15.77;;;13.30;;
15230;SDS011;32569;51.762;8.564;2022-11-15T05:35:18;14.93;;;12.77;;
15230;SDS011;32569;51.762;8.564;2022-11-15T05:37:50;15.20;;;13.07;;
15230;SDS011;32569;51.762;8.564;2022-11-15T05:40:17;14.97;;;12.87;;
15230;SDS011;32569;51.762;8.564;2022-11-15T05:42:44;14.40;;;12.57;;
15230;SDS011;32569;51.762;8.564;2022-11-15T05:45:13;16.70;;;13.97;;
15230;SDS011;32569;51.762;8.564;2022-11-15T05:47:41;14.47;;;12.97;;
15230;SDS011;32569;51.762;8.564;2022-11-15T05:50:10;15.33;;;12.60;;
15230;SDS011;32569;51.762;8.564;2022-11-15T05:52:38;15.00;;;13.50;;
15230;SDS011;32569;51.762;8.564;2022-11-15T05:55:05;15.87;;;11.90;;
15230;SDS011;32569;51.762;8.564;2022-11-15T05:57:37;13.00;;;11.17;;
15230;SDS011;32569;51.762;8.564;2022-11-15T06:00:05;12.73;;;11.20;;
15230;SDS011;32569;51.762;8.564;2022-11-15T06:02:34;13.07;;;11.27;;
15230;SDS011;32569;51.762;8.564;2022-11-15T06:05:01;13.33;;;11.17;;
15230;SDS011;32569;51.762;8.564;2022-11-15T06:07:28;12.93;;;11.63;;
15230;SDS011;32569;51.762;8.564;2022-11-15T06:09:57;13.43;;;12.00;;
15230;SDS011;32569;51.762;8.564;2022-11-15T06:12:23;14.63;;;10.57;;
15230;SDS011;32569;51.762;8.564;2022-11-15T06:14:50;14.37;;;11.27;;
15230;SDS011;32569;51.762;8.564;2022-11-15T06:17:17;12.80;;;10.93;;
15230;SDS011;32569;51.762;8.564;2022-11-15T06:19:45;13.13;;;10.67;;
15230;SDS011;32569;51.762;8.564;2022-11-15T06:22:12;12.23;;;10.93;;
15230;SDS011;32569;51.762;8.564;2022-11-15T06:24:39;13.60;;;11.93;;
15230;SDS011;32569;51.762;8.564;2022-11-15T06:27:05;12.93;;;11.10;;
15230;SDS011;32569;51.762;8.564;2022-11-15T06:29:32;12.27;;;10.97;;
15230;SDS011;32569;51.762;8.564;2022-11-15T06:31:59;14.03;;;11.23;;
15230;SDS011;32569;51.762;8.564;2022-11-15T06:34:26;12.37;;;10.90;;
15230;SDS011;32569;51.762;8.564;2022-11-15T06:36:54;12.40;;;11.13;;
15230;SDS011;32569;51.762;8.564;2022-11-15T06:39:21;12.33;;;10.73;;
15230;SDS011;32569;51.762;8.564;2022-11-15T06:41:47;12.77;;;10.90;;
15230;SDS011;32569;51.762;8.564;2022-11-15T06:44:14;15.00;;;11.63;;
15230;SDS011;32569;51.762;8.564;2022-11-15T06:46:44;13.00;;;11.20;;
15230;SDS011;32569;51.762;8.564;2022-11-15T06:49:10;13.60;;;11.73;;
15230;SDS011;32569;51.762;8.564;2022-11-15T06:51:37;12.47;;;11.17;;
15230;SDS011;32569;51.762;8.564;2022-11-15T06:54:05;12.57;;;11.27;;
15230;SDS011;32569;51.762;8.564;2022-11-15T06:56:33;13.90;;;11.93;;
15230;SDS011;32569;51.762;8.564;2022-11-15T06:59:00;12.77;;;11.33;;
15230;SDS011;32569;51.762;8.564;2022-11-15T07:01:27;13.87;;;11.33;;
15230;SDS011;32569;51.762;8.564;2022-11-15T07:03:53;13.50;;;11.57;;
15230;SDS011;32569;51.762;8.564;2022-11-15T07:06:20;12.00;;;10.13;;
15230;SDS011;32569;51.762;8.564;2022-11-15T07:08:48;11.93;;;10.53;;
15230;SDS011;32569;51.762;8.564;2022-11-15T07:11:16;11.93;;;10.30;;
15230;SDS011;32569;51.762;8.564;2022-11-15T07:13:43;11.37;;;10.27;;
15230;SDS011;32569;51.762;8.564;2022-11-15T07:16:10;12.17;;;9.67;;
15230;SDS011;32569;51.762;8.564;2022-11-15T07:18:37;11.43;;;9.87;;
15230;SDS011;32569;51.762;8.564;2022-11-15T07:21:06;10.87;;;9.57;;
15230;SDS011;32569;51.762;8.564;2022-11-15T07:23:35;10.27;;;9.10;;
15230;SDS011;32569;51.762;8.564;2022-11-15T07:36:25;8.53;;;7.73;;
15230;SDS011;32569;51.762;8.564;2022-11-15T07:38:52;8.23;;;7.43;;
15230;SDS011;32569;51.762;8.564;2022-11-15T07:41:18;9.07;;;8.17;;
15230;SDS011;32569;51.762;8.564;2022-11-15T07:43:45;8.33;;;7.10;;
15230;SDS011;32569;51.762;8.564;2022-11-15T07:46:12;8.03;;;6.77;;
15230;SDS011;32569;51.762;8.564;2022-11-15T07:48:39;7.90;;;7.10;;
15230;SDS011;32569;51.762;8.564;2022-11-15T07:51:05;9.30;;;7.23;;
15230;SDS011;32569;51.762;8.564;2022-11-15T07:53:34;8.87;;;7.50;;
15230;SDS011;32569;51.762;8.564;2022-11-15T07:56:01;7.43;;;6.63;;
15230;SDS011;32569;51.762;8.564;2022-11-15T07:58:27;7.73;;;6.87;;
15230;SDS011;32569;51.762;8.564;2022-11-15T08:00:54;7.23;;;6.53;;
15230;SDS011;32569;51.762;8.564;2022-11-15T08:03:22;7.97;;;7.20;;
15230;SDS011;32569;51.762;8.564;2022-11-15T08:05:50;7.30;;;6.60;;
15230;SDS011;32569;51.762;8.564;2022-11-15T08:08:17;7.33;;;6.63;;
15230;SDS011;32569;51.762;8.564;2022-11-15T08:10:46;8.13;;;6.50;;
15230;SDS011;32569;51.762;8.564;2022-11-15T08:13:12;7.40;;;6.43;;
15230;SDS011;32569;51.762;8.564;2022-11-15T08:15:40;6.53;;;5.87;;
15230;SDS011;32569;51.762;8.564;2022-11-15T08:18:09;7.50;;;6.80;;
15230;SDS011;32569;51.762;8.564;2022-11-15T08:20:37;6.00;;;5.50;;
15230;SDS011;32569;51.762;8.564;2022-11-15T08:23:05;6.07;;;5.47;;
15230;SDS011;32569;51.762;8.564;2022-11-15T08:25:32;6.77;;;6.07;;
15230;SDS011;32569;51.762;8.564;2022-11-15T08:28:03;6.73;;;5.37;;
15230;SDS011;32569;51.762;8.564;2022-11-15T08:30:34;8.13;;;5.57;;
15230;SDS011;32569;51.762;8.564;2022-11-15T08:33:02;6.43;;;5.63;;
15230;SDS011;32569;51.762;8.564;2022-11-15T08:35:29;5.73;;;5.20;;
15230;SDS011;32569;51.762;8.564;2022-11-15T08:37:56;5.87;;;5.30;;
15230;SDS011;32569;51.762;8.564;2022-11-15T08:40:24;6.03;;;5.43;;
15230;SDS011;32569;51.762;8.564;2022-11-15T08:42:51;5.90;;;5.30;;
15230;SDS011;32569;51.762;8.564;2022-11-15T08:45:20;6.00;;;5.40;;
15230;SDS011;32569;51.762;8.564;2022-11-15T08:47:47;7.00;;;6.00;;
15230;SDS011;32569;51.762;8.564;2022-11-15T08:50:15;6.10;;;5.53;;
15230;SDS011;32569;51.762;8.564;2022-11-15T08:52:42;6.13;;;4.63;;
15230;SDS011;32569;51.762;8.564;2022-11-15T08:55:09;5.20;;;4.70;;
15230;SDS011;32569;51.762;8.564;2022-11-15T08:57:35;4.70;;;4.30;;
15230;SDS011;32569;51.762;8.564;2022-11-15T09:00:03;5.90;;;3.77;;
15230;SDS011;32569;51.762;8.564;2022-11-15T09:02:31;3.20;;;2.90;;
15230;SDS011;32569;51.762;8.564;2022-11-15T09:04:58;3.10;;;2.80;;
15230;SDS011;32569;51.762;8.564;2022-11-15T09:07:26;2.57;;;2.20;;
15230;SDS011;32569;51.762;8.564;2022-11-15T09:09:54;2.63;;;2.20;;
15230;SDS011;32569;51.762;8.564;2022-11-15T09:12:21;3.50;;;2.00;;
15230;SDS011;32569;51.762;8.564;2022-11-15T09:14:48;3.17;;;1.97;;
15230;SDS011;32569;51.762;8.564;2022-11-15T09:17:15;4.33;;;2.10;;
15230;SDS011;32569;51.762;8.564;2022-11-15T09:19:43;1.97;;;1.73;;
15230;SDS011;32569;51.762;8.564;2022-11-15T09:22:10;2.07;;;1.97;;
15230;SDS011;32569;51.762;8.564;2022-11-15T09:24:37;2.60;;;2.10;;
15230;SDS011;32569;51.762;8.564;2022-11-15T09:27:03;2.10;;;1.90;;
15230;SDS011;32569;51.762;8.564;2022-11-15T09:29:30;2.23;;;2.13;;
15230;SDS011;32569;51.762;8.564;2022-11-15T09:31:58;2.47;;;2.00;;
15230;SDS011;32569;51.762;8.564;2022-11-15T09:34:25;3.30;;;1.87;;
15230;SDS011;32569;51.762;8.564;2022-11-15T09:36:53;3.10;;;2.20;;
15230;SDS011;32569;51.762;8.564;2022-11-15T09:39:21;1.80;;;1.70;;
15230;SDS011;32569;51.762;8.564;2022-11-15T09:41:54;2.50;;;1.80;;
15230;SDS011;32569;51.762;8.564;2022-11-15T09:44:33;2.53;;;2.10;;
15230;SDS011;32569;51.762;8.564;2022-11-15T09:47:08;1.87;;;1.77;;
15230;SDS011;32569;51.762;8.564;2022-11-15T09:49:59;2.00;;;1.77;;
15230;SDS011;32569;51.762;8.564;2022-11-15T09:52:37;1.90;;;1.80;;
15230;SDS011;32569;51.762;8.564;2022-11-15T09:55:08;1.70;;;1.57;;
15230;SDS011;32569;51.762;8.564;2022-11-15T09:57:39;2.97;;;2.10;;
15230;SDS011;32569;51.762;8.564;2022-11-15T10:00:13;1.87;;;1.77;;
15230;SDS011;32569;51.762;8.564;2022-11-15T10:02:48;1.77;;;1.67;;
15230;SDS011;32569;51.762;8.564;2022-11-15T10:05:27;2.13;;;1.60;;
15230;SDS011;32569;51.762;8.564;2022-11-15T10:07:58;1.90;;;1.80;;
15230;SDS011;32569;51.762;8.564;2022-11-15T10:10:34;2.43;;;1.63;;
15230;SDS011;32569;51.762;8.564;2022-11-15T10:13:06;2.20;;;2.00;;
15230;SDS011;32569;51.762;8.564;2022-11-15T10:15:40;2.10;;;2.00;;
15230;SDS011;32569;51.762;8.564;2022-11-15T10:18:14;2.07;;;1.90;;
15230;SDS011;32569;51.762;8.564;2022-11-15T10:20:46;3.40;;;1.90;;
15230;SDS011;32569;51.762;8.564;2022-11-15T10:23:17;1.87;;;1.77;;
15230;SDS011;32569;51.762;8.564;2022-11-15T10:25:46;1.70;;;1.60;;
15230;SDS011;32569;51.762;8.564;2022-11-15T10:28:17;2.27;;;2.07;;
15230;SDS011;32569;51.762;8.564;2022-11-15T10:30:51;2.43;;;2.20;;
15230;SDS011;32569;51.762;8.564;2022-11-15T10:33:22;2.37;;;2.20;;
15230;SDS011;32569;51.762;8.564;2022-11-15T10:38:52;2.40;;;2.10;;
15230;SDS011;32569;51.762;8.564;2022-11-15T10:41:29;2.40;;;2.20;;
15230;SDS011;32569;51.762;8.564;2022-11-15T10:44:07;3.03;;;2.33;;
15230;SDS011;32569;51.762;8.564;2022-11-15T10:46:46;2.20;;;2.00;;
15230;SDS011;32569;51.762;8.564;2022-11-15T10:49:16;3.50;;;2.30;;
15230;SDS011;32569;51.762;8.564;2022-11-15T10:51:45;2.97;;;2.20;;
15230;SDS011;32569;51.762;8.564;2022-11-15T10:54:17;2.07;;;1.97;;
15230;SDS011;32569;51.762;8.564;2022-11-15T10:56:50;2.63;;;2.40;;
15230;SDS011;32569;51.762;8.564;2022-11-15T10:59:20;2.53;;;2.33;;
15230;SDS011;32569;51.762;8.564;2022-11-15T11:01:50;2.83;;;2.10;;
15230;SDS011;32569;51.762;8.564;2022-11-15T11:04:17;2.30;;;2.10;;
15230;SDS011;32569;51.762;8.564;2022-11-15T11:06:48;2.83;;;2.13;;
15230;SDS011;32569;51.762;8.564;2022-11-15T11:09:27;3.10;;;2.33;;
15230;SDS011;32569;51.762;8.564;2022-11-15T11:12:04;2.43;;;2.10;;
15230;SDS011;32569;51.762;8.564;2022-11-15T11:14:36;2.80;;;2.60;;
15230;SDS011;32569;51.762;8.564;2022-11-15T11:17:05;2.90;;;2.60;;
15230;SDS011;32569;51.762;8.564;2022-11-15T11:19:43;2.60;;;2.40;;
15230;SDS011;32569;51.762;8.564;2022-11-15T11:22:22;2.47;;;2.27;;
15230;SDS011;32569;51.762;8.564;2022-11-15T11:24:58;2.20;;;2.00;;
15230;SDS011;32569;51.762;8.564;2022-11-15T11:27:47;3.40;;;2.20;;
15230;SDS011;32569;51.762;8.564;2022-11-15T11:30:30;4.43;;;2.17;;
15230;SDS011;32569;51.762;8.564;2022-11-15T11:33:09;2.10;;;1.97;;
15230;SDS011;32569;51.762;8.564;2022-11-15T11:35:45;2.93;;;2.13;;
15230;SDS011;32569;51.762;8.564;2022-11-15T11:38:24;3.73;;;2.90;;
15230;SDS011;32569;51.762;8.564;2022-11-15T11:41:06;2.83;;;2.27;;
15230;SDS011;32569;51.762;8.564;2022-11-15T11:43:42;2.10;;;1.90;;
15230;SDS011;32569;51.762;8.564;2022-11-15T11:46:22;2.20;;;2.00;;
15230;SDS011;32569;51.762;8.564;2022-11-15T11:49:01;2.90;;;2.00;;
15230;SDS011;32569;51.762;8.564;2022-11-15T11:51:36;2.80;;;2.20;;
15230;SDS011;32569;51.762;8.564;2022-11-15T11:54:10;1.83;;;1.73;;
15230;SDS011;32569;51.762;8.564;2022-11-15T11:56:43;2.13;;;1.90;;
15230;SDS011;32569;51.762;8.564;2022-11-15T11:59:12;1.83;;;1.70;;
15230;SDS011;32569;51.762;8.564;2022-11-15T12:01:47;2.03;;;1.93;;
15230;SDS011;32569;51.762;8.564;2022-11-15T12:04:14;2.10;;;1.90;;
15230;SDS011;32569;51.762;8.564;2022-11-15T12:06:47;2.07;;;1.97;;
15230;SDS011;32569;51.762;8.564;2022-11-15T12:09:20;1.93;;;1.83;;
15230;SDS011;32569;51.762;8.564;2022-11-15T12:11:54;1.70;;;1.60;;
15230;SDS011;32569;51.762;8.564;2022-11-15T12:14:29;2.00;;;1.90;;
15230;SDS011;32569;51.762;8.564;2022-11-15T12:16:59;6.67;;;2.00;;
15230;SDS011;32569;51.762;8.564;2022-11-15T12:19:26;2.30;;;2.10;;
15230;SDS011;32569;51.762;8.564;2022-11-15T12:21:56;3.00;;;2.10;;
15230;SDS011;32569;51.762;8.564;2022-11-15T12:24:30;3.07;;;1.97;;
15230;SDS011;32569;51.762;8.564;2022-11-15T12:27:03;1.90;;;1.80;;
15230;SDS011;32569;51.762;8.564;2022-11-15T12:29:36;3.57;;;2.20;;
15230;SDS011;32569;51.762;8.564;2022-11-15T12:32:10;1.60;;;1.50;;
15230;SDS011;32569;51.762;8.564;2022-11-15T12:34:45;2.10;;;1.70;;
15230;SDS011;32569;51.762;8.564;2022-11-15T12:46:13;2.67;;;1.90;;
15230;SDS011;32569;51.762;8.564;2022-11-15T12:48:51;1.90;;;1.80;;
15230;SDS011;32569;51.762;8.564;2022-11-15T12:51:20;2.57;;;1.80;;
15230;SDS011;32569;51.762;8.564;2022-11-15T12:53:48;2.80;;;1.87;;
15230;SDS011;32569;51.762;8.564;2022-11-15T12:56:18;2.17;;;1.97;;
15230;SDS011;32569;51.762;8.564;2022-11-15T12:58:53;1.80;;;1.70;;
15230;SDS011;32569;51.762;8.564;2022-11-15T13:04:27;5.00;;;2.50;;
15230;SDS011;32569;51.762;8.564;2022-11-15T13:06:56;4.17;;;2.70;;
15230;SDS011;32569;51.762;8.564;2022-11-15T13:15:31;2.27;;;2.07;;
15230;SDS011;32569;51.762;8.564;2022-11-15T13:18:23;8.33;;;2.70;;
15230;SDS011;32569;51.762;8.564;2022-11-15T13:20:54;3.23;;;2.80;;
15230;SDS011;32569;51.762;8.564;2022-11-15T13:23:21;4.50;;;3.27;;
15230;SDS011;32569;51.762;8.564;2022-11-15T13:25:55;3.03;;;2.73;;
15230;SDS011;32569;51.762;8.564;2022-11-15T13:28:37;3.70;;;2.30;;
15230;SDS011;32569;51.762;8.564;2022-11-15T13:34:02;2.53;;;2.30;;
15230;SDS011;32569;51.762;8.564;2022-11-15T13:36:42;4.37;;;2.83;;
15230;SDS011;32569;51.762;8.564;2022-11-15T13:39:12;7.63;;;3.23;;
15230;SDS011;32569;51.762;8.564;2022-11-15T13:41:51;5.60;;;2.70;;
15230;SDS011;32569;51.762;8.564;2022-11-15T13:44:19;4.57;;;3.27;;
15230;SDS011;32569;51.762;8.564;2022-11-15T13:46:49;3.73;;;3.20;;
15230;SDS011;32569;51.762;8.564;2022-11-15T13:49:28;3.40;;;3.10;;
15230;SDS011;32569;51.762;8.564;2022-11-15T13:51:56;4.23;;;3.23;;
15230;SDS011;32569;51.762;8.564;2022-11-15T13:54:24;3.97;;;3.47;;
15230;SDS011;32569;51.762;8.564;2022-11-15T13:56:55;2.67;;;2.43;;
15230;SDS011;32569;51.762;8.564;2022-11-15T13:59:26;4.93;;;3.20;;
15230;SDS011;32569;51.762;8.564;2022-11-15T14:01:56;5.17;;;4.00;;
15230;SDS011;32569;51.762;8.564;2022-11-15T14:04:25;5.13;;;2.87;;
15230;SDS011;32569;51.762;8.564;2022-11-15T14:06:56;4.37;;;2.60;;
15230;SDS011;32569;51.762;8.564;2022-11-15T14:09:30;3.17;;;2.60;;
15230;SDS011;32569;51.762;8.564;2022-11-15T14:11:59;2.00;;;1.90;;
15230;SDS011;32569;51.762;8.564;2022-11-15T14:14:27;2.37;;;2.17;;
15230;SDS011;32569;51.762;8.564;2022-11-15T14:16:57;1.80;;;1.67;;
15230;SDS011;32569;51.762;8.564;2022-11-15T14:19:37;2.80;;;1.90;;
15230;SDS011;32569;51.762;8.564;2022-11-15T14:22:14;2.50;;;1.97;;
15230;SDS011;32569;51.762;8.564;2022-11-15T14:24:47;2.23;;;2.03;;
15230;SDS011;32569;51.762;8.564;2022-11-15T14:27:30;5.40;;;2.90;;
15230;SDS011;32569;51.762;8.564;2022-11-15T14:29:58;5.27;;;2.00;;
15230;SDS011;32569;51.762;8.564;2022-11-15T14:32:27;3.90;;;2.40;;
15230;SDS011;32569;51.762;8.564;2022-11-15T14:34:56;3.40;;;3.10;;
15230;SDS011;32569;51.762;8.564;2022-11-15T14:37:25;2.57;;;2.37;;
15230;SDS011;32569;51.762;8.564;2022-11-15T14:39:53;3.20;;;2.63;;
15230;SDS011;32569;51.762;8.564;2022-11-15T14:42:21;2.53;;;2.20;;
15230;SDS011;32569;51.762;8.564;2022-11-15T14:44:48;3.20;;;2.70;;
15230;SDS011;32569;51.762;8.564;2022-11-15T14:47:15;3.73;;;2.50;;
15230;SDS011;32569;51.762;8.564;2022-11-15T14:49:43;2.83;;;2.37;;
15230;SDS011;32569;51.762;8.564;2022-11-15T14:52:16;4.27;;;3.40;;
15230;SDS011;32569;51.762;8.564;2022-11-15T14:54:51;8.53;;;4.23;;
15230;SDS011;32569;51.762;8.564;2022-11-15T14:57:19;3.40;;;3.10;;
15230;SDS011;32569;51.762;8.564;2022-11-15T14:59:46;4.60;;;3.30;;
15230;SDS011;32569;51.762;8.564;2022-11-15T15:02:15;4.27;;;3.87;;
15230;SDS011;32569;51.762;8.564;2022-11-15T15:04:45;13.07;;;6.07;;
15230;SDS011;32569;51.762;8.564;2022-11-15T15:07:12;3.77;;;2.80;;
15230;SDS011;32569;51.762;8.564;2022-11-15T15:09:38;2.70;;;2.17;;
15230;SDS011;32569;51.762;8.564;2022-11-15T15:12:09;2.97;;;2.47;;
15230;SDS011;32569;51.762;8.564;2022-11-15T15:14:42;4.30;;;3.23;;
15230;SDS011;32569;51.762;8.564;2022-11-15T15:17:08;7.50;;;3.57;;
15230;SDS011;32569;51.762;8.564;2022-11-15T15:19:35;6.57;;;3.70;;
15230;SDS011;32569;51.762;8.564;2022-11-15T15:22:03;4.20;;;3.07;;
15230;SDS011;32569;51.762;8.564;2022-11-15T15:24:31;3.13;;;2.43;;
15230;SDS011;32569;51.762;8.564;2022-11-15T15:26:57;3.07;;;2.70;;
15230;SDS011;32569;51.762;8.564;2022-11-15T15:29:24;4.77;;;3.20;;
15230;SDS011;32569;51.762;8.564;2022-11-15T15:31:51;4.70;;;2.60;;
15230;SDS011;32569;51.762;8.564;2022-11-15T15:34:17;3.73;;;3.43;;